Dardenne Prairie, MO (63368)

12:29 AM CST on February 12, 2016 (GMT -0600)
Royal Oaks | | Change Station
CLOSE
Current Station
Personal Weather Station
Location: O'Fallon, MO
Elevation: 538 ft
Nearby Weather Stations

Elev 538 ft 38.84 °N, 90.73 °W | Updated 10 seconds ago

Snow
Snow
24.4 °F
Feels Like 24 °F
N
2.0
Wind Variable Wind from SE
Gusts 5.0 mph

Today
High -- | Low -- °F
--% Chance of Precip.
Yesterday
High -- | Low -- °F
Precip. -- in
Pressure 30.24 in
Visibility 4.0 miles
Clouds Mostly Cloudy 3000 ft
Overcast 6000 ft
Windchill 24 °F
Dew Point 20 °F
Humidity 83%
Rainfall 0.00 in
Snow Depth Not available.
6:58 AM 5:36 PM
Waxing Crescent, 18% visible
SPECI KSUS 120615Z AUTO 10003KT 4SM -SN BKN030 OVC060 M03/M07 A3024 RMK AO2 SNB0555 P0000
Pressure 30.24 in
Visibility 4.0 miles
Clouds Mostly Cloudy 3000 ft
Overcast 6000 ft
Windchill 24 °F
Dew Point 20 °F
Humidity 83%
Rainfall 0.00 in
Snow Depth Not available.
6:58 AM 5:36 PM
Waxing Crescent, 18% visible
SPECI KSUS 120615Z AUTO 10003KT 4SM -SN BKN030 OVC060 M03/M07 A3024 RMK AO2 SNB0555 P0000

10-Day Weather Forecast

Almanac

Astronomy

Feb. 12, 2016 Rise Set
Actual Time
Civil Twilight
Nautical Twilight
Astronomical Twilight
Moon
Length of Visible Light
Length of Day
Tomorrow will be .
, % of the Moon is Illuminated

Today's Extremes

State Highs State Lows

Community

WunderPhotos

Upload Photos

1,892,276 photos uploaded!

WunderBlog® & News

Nearby

Air Quality

  Air Quality AQ Index Pollutant
Not available.

Snow Depth

Station Depth Elevation

Earthquake Activity

City Distance Mag. Time & Date
Minimum magnitude displayed is 2.5.

Coastal Water Temperatures

Place Temperature

Stations

Nearby Weather Stations

Station Location Temp. Windchill Dew Point Humidity Wind Precip. Elev Updated Type
                   

Watches & Warnings

There are currently no watches in effect.